sensor_id;sensor_type;location;lat;lon;timestamp;pressure;altitude;pressure_sealevel;temperature;humidity
10658;BME280;5377;43.276;26.930;2023-06-24T00:01:15;99101.97;;;20.85;100.00
10658;BME280;5377;43.276;26.930;2023-06-24T00:03:42;99110.66;;;20.77;100.00
10658;BME280;5377;43.276;26.930;2023-06-24T00:06:12;99081.78;;;20.66;100.00
10658;BME280;5377;43.276;26.930;2023-06-24T00:08:43;99100.59;;;20.77;100.00
10658;BME280;5377;43.276;26.930;2023-06-24T00:11:12;99096.50;;;20.75;100.00
10658;BME280;5377;43.276;26.930;2023-06-24T00:13:38;99093.22;;;20.73;100.00
10658;BME280;5377;43.276;26.930;2023-06-24T00:16:05;99094.59;;;20.65;100.00
10658;BME280;5377;43.276;26.930;2023-06-24T00:18:32;99089.41;;;20.53;100.00
10658;BME280;5377;43.276;26.930;2023-06-24T00:20:59;99091.31;;;20.63;100.00
10658;BME280;5377;43.276;26.930;2023-06-24T00:23:28;99094.31;;;20.62;100.00
10658;BME280;5377;43.276;26.930;2023-06-24T00:25:56;99093.19;;;20.47;100.00
10658;BME280;5377;43.276;26.930;2023-06-24T00:28:24;99081.50;;;20.52;100.00
10658;BME280;5377;43.276;26.930;2023-06-24T00:30:51;99081.75;;;20.45;100.00
10658;BME280;5377;43.276;26.930;2023-06-24T00:33:17;99075.75;;;20.43;100.00
10658;BME280;5377;43.276;26.930;2023-06-24T00:35:45;99072.47;;;20.41;100.00
10658;BME280;5377;43.276;26.930;2023-06-24T00:38:12;99077.59;;;20.33;100.00
10658;BME280;5377;43.276;26.930;2023-06-24T00:40:39;99070.28;;;20.38;100.00
10658;BME280;5377;43.276;26.930;2023-06-24T00:43:06;99064.81;;;20.38;100.00
10658;BME280;5377;43.276;26.930;2023-06-24T00:45:35;99063.72;;;20.29;100.00
10658;BME280;5377;43.276;26.930;2023-06-24T00:48:02;99071.34;;;20.32;100.00
10658;BME280;5377;43.276;26.930;2023-06-24T00:50:29;99065.34;;;20.20;100.00
10658;BME280;5377;43.276;26.930;2023-06-24T00:52:55;99064.50;;;20.14;100.00
10658;BME280;5377;43.276;26.930;2023-06-24T00:55:22;99070.69;;;20.05;100.00
10658;BME280;5377;43.276;26.930;2023-06-24T00:57:51;99064.78;;;20.18;100.00
10658;BME280;5377;43.276;26.930;2023-06-24T01:00:20;99053.09;;;20.17;100.00
10658;BME280;5377;43.276;26.930;2023-06-24T01:02:50;99046.28;;;20.15;100.00
10658;BME280;5377;43.276;26.930;2023-06-24T01:05:17;99023.91;;;19.98;100.00
10658;BME280;5377;43.276;26.930;2023-06-24T01:07:49;99040.78;;;20.00;100.00
10658;BME280;5377;43.276;26.930;2023-06-24T01:10:21;99039.94;;;19.94;100.00
10658;BME280;5377;43.276;26.930;2023-06-24T01:12:49;99039.69;;;20.06;100.00
10658;BME280;5377;43.276;26.930;2023-06-24T01:15:16;99036.16;;;20.00;100.00
10658;BME280;5377;43.276;26.930;2023-06-24T01:17:52;99027.72;;;20.02;100.00
10658;BME280;5377;43.276;26.930;2023-06-24T01:20:25;99020.06;;;19.83;100.00
10658;BME280;5377;43.276;26.930;2023-06-24T01:23:11;99026.59;;;19.82;100.00
10658;BME280;5377;43.276;26.930;2023-06-24T01:25:57;99025.50;;;19.83;100.00
10658;BME280;5377;43.276;26.930;2023-06-24T01:28:46;99018.66;;;19.76;100.00
10658;BME280;5377;43.276;26.930;2023-06-24T01:31:36;99027.41;;;19.83;100.00
10658;BME280;5377;43.276;26.930;2023-06-24T01:34:13;99023.25;;;19.70;100.00
10658;BME280;5377;43.276;26.930;2023-06-24T01:39:27;99022.69;;;19.68;100.00
10658;BME280;5377;43.276;26.930;2023-06-24T01:42:00;99019.66;;;19.59;100.00
10658;BME280;5377;43.276;26.930;2023-06-24T01:44:29;99022.69;;;19.63;100.00
10658;BME280;5377;43.276;26.930;2023-06-24T01:46:59;99013.13;;;19.55;100.00
10658;BME280;5377;43.276;26.930;2023-06-24T01:49:28;99012.53;;;19.48;100.00
10658;BME280;5377;43.276;26.930;2023-06-24T01:51:59;99023.69;;;19.52;100.00
10658;BME280;5377;43.276;26.930;2023-06-24T01:54:28;99028.56;;;19.50;100.00
10658;BME280;5377;43.276;26.930;2023-06-24T01:56:57;99010.59;;;19.44;100.00
10658;BME280;5377;43.276;26.930;2023-06-24T01:59:28;99011.91;;;19.41;100.00
10658;BME280;5377;43.276;26.930;2023-06-24T02:01:55;99018.78;;;19.49;100.00
10658;BME280;5377;43.276;26.930;2023-06-24T02:04:25;99025.34;;;19.53;100.00
10658;BME280;5377;43.276;26.930;2023-06-24T02:06:58;99023.09;;;19.45;100.00
10658;BME280;5377;43.276;26.930;2023-06-24T02:09:26;99021.19;;;19.45;100.00
10658;BME280;5377;43.276;26.930;2023-06-24T02:11:54;98978.66;;;19.14;100.00
10658;BME280;5377;43.276;26.930;2023-06-24T02:14:22;99020.38;;;19.45;100.00
10658;BME280;5377;43.276;26.930;2023-06-24T02:16:50;99019.19;;;19.30;100.00
10658;BME280;5377;43.276;26.930;2023-06-24T02:19:21;99018.66;;;19.28;100.00
10658;BME280;5377;43.276;26.930;2023-06-24T02:21:51;99027.28;;;19.20;100.00
10658;BME280;5377;43.276;26.930;2023-06-24T02:24:19;99035.41;;;19.15;100.00
10658;BME280;5377;43.276;26.930;2023-06-24T02:26:47;99030.53;;;19.17;100.00
10658;BME280;5377;43.276;26.930;2023-06-24T02:29:15;99028.34;;;19.14;100.00
10658;BME280;5377;43.276;26.930;2023-06-24T02:31:42;99033.81;;;19.24;100.00
10658;BME280;5377;43.276;26.930;2023-06-24T02:34:09;99039.81;;;19.26;100.00
10658;BME280;5377;43.276;26.930;2023-06-24T02:36:36;99048.53;;;19.28;100.00
10658;BME280;5377;43.276;26.930;2023-06-24T02:39:04;99010.31;;;19.03;100.00
10658;BME280;5377;43.276;26.930;2023-06-24T02:41:31;99047.41;;;19.24;100.00
10658;BME280;5377;43.276;26.930;2023-06-24T02:43:58;99047.69;;;19.28;100.00
10658;BME280;5377;43.276;26.930;2023-06-24T02:46:26;99053.38;;;19.26;100.00
10658;BME280;5377;43.276;26.930;2023-06-24T02:48:56;99056.66;;;19.28;100.00
10658;BME280;5377;43.276;26.930;2023-06-24T02:51:25;99061.00;;;19.29;100.00
10658;BME280;5377;43.276;26.930;2023-06-24T02:53:52;99054.00;;;19.39;100.00
10658;BME280;5377;43.276;26.930;2023-06-24T02:56:21;99063.47;;;19.31;100.00
10658;BME280;5377;43.276;26.930;2023-06-24T02:58:50;99053.75;;;19.40;100.00
10658;BME280;5377;43.276;26.930;2023-06-24T03:01:18;99060.81;;;19.41;100.00
10658;BME280;5377;43.276;26.930;2023-06-24T03:03:51;99060.78;;;19.36;100.00
10658;BME280;5377;43.276;26.930;2023-06-24T03:06:20;99067.38;;;19.45;100.00
10658;BME280;5377;43.276;26.930;2023-06-24T03:08:48;99067.69;;;19.49;100.00
10658;BME280;5377;43.276;26.930;2023-06-24T03:11:15;99076.28;;;19.41;100.00
10658;BME280;5377;43.276;26.930;2023-06-24T03:13:44;99073.53;;;19.36;100.00
10658;BME280;5377;43.276;26.930;2023-06-24T03:16:11;99079.59;;;19.43;100.00
10658;BME280;5377;43.276;26.930;2023-06-24T03:18:40;99083.34;;;19.42;100.00
10658;BME280;5377;43.276;26.930;2023-06-24T03:21:07;99076.38;;;19.51;100.00
10658;BME280;5377;43.276;26.930;2023-06-24T03:23:33;99080.91;;;19.40;100.00
10658;BME280;5377;43.276;26.930;2023-06-24T03:26:00;99083.94;;;19.44;100.00
10658;BME280;5377;43.276;26.930;2023-06-24T03:28:28;99082.91;;;19.50;100.00
10658;BME280;5377;43.276;26.930;2023-06-24T03:30:57;99081.59;;;19.57;100.00
10658;BME280;5377;43.276;26.930;2023-06-24T03:33:24;99098.44;;;19.54;100.00
10658;BME280;5377;43.276;26.930;2023-06-24T03:35:52;99100.88;;;19.56;100.00
10658;BME280;5377;43.276;26.930;2023-06-24T03:38:19;99091.13;;;19.60;100.00
10658;BME280;5377;43.276;26.930;2023-06-24T03:40:46;99088.50;;;19.75;100.00
10658;BME280;5377;43.276;26.930;2023-06-24T03:43:12;99096.69;;;19.80;100.00
10658;BME280;5377;43.276;26.930;2023-06-24T03:45:39;99101.06;;;19.86;100.00
10658;BME280;5377;43.276;26.930;2023-06-24T03:48:07;99101.09;;;19.91;100.00
10658;BME280;5377;43.276;26.930;2023-06-24T03:50:34;99103.84;;;19.97;100.00
10658;BME280;5377;43.276;26.930;2023-06-24T03:53:02;99095.44;;;20.03;100.00
10658;BME280;5377;43.276;26.930;2023-06-24T03:55:28;99096.00;;;20.10;100.00
10658;BME280;5377;43.276;26.930;2023-06-24T03:57:55;99097.97;;;20.20;100.00
10658;BME280;5377;43.276;26.930;2023-06-24T04:00:22;99105.06;;;20.31;100.00
10658;BME280;5377;43.276;26.930;2023-06-24T04:02:49;99096.97;;;20.41;100.00
10658;BME280;5377;43.276;26.930;2023-06-24T04:05:19;99097.56;;;20.48;100.00
10658;BME280;5377;43.276;26.930;2023-06-24T04:07:46;99099.75;;;20.57;100.00
10658;BME280;5377;43.276;26.930;2023-06-24T04:10:17;99067.91;;;20.47;100.00
10658;BME280;5377;43.276;26.930;2023-06-24T04:12:44;99100.34;;;20.84;100.00
10658;BME280;5377;43.276;26.930;2023-06-24T04:15:11;99095.44;;;20.91;100.00
10658;BME280;5377;43.276;26.930;2023-06-24T04:17:38;99099.25;;;20.95;100.00
10658;BME280;5377;43.276;26.930;2023-06-24T04:20:05;99084.00;;;21.14;100.00
10658;BME280;5377;43.276;26.930;2023-06-24T04:22:36;99095.50;;;21.27;100.00
10658;BME280;5377;43.276;26.930;2023-06-24T04:25:04;99090.84;;;21.32;100.00
10658;BME280;5377;43.276;26.930;2023-06-24T04:27:31;99097.38;;;21.46;100.00
10658;BME280;5377;43.276;26.930;2023-06-24T04:29:58;99096.56;;;21.51;100.00
10658;BME280;5377;43.276;26.930;2023-06-24T04:32:25;99101.19;;;21.56;100.00
10658;BME280;5377;43.276;26.930;2023-06-24T04:34:52;99100.88;;;21.72;97.50
10658;BME280;5377;43.276;26.930;2023-06-24T04:37:19;99098.69;;;21.74;97.17
10658;BME280;5377;43.276;26.930;2023-06-24T04:39:47;99065.19;;;21.64;94.63
10658;BME280;5377;43.276;26.930;2023-06-24T04:42:15;99098.63;;;22.00;94.01
10658;BME280;5377;43.276;26.930;2023-06-24T04:44:42;99106.50;;;22.12;92.89
10658;BME280;5377;43.276;26.930;2023-06-24T04:47:08;99103.22;;;22.15;93.63
10658;BME280;5377;43.276;26.930;2023-06-24T04:49:35;99108.41;;;22.21;94.38
10658;BME280;5377;43.276;26.930;2023-06-24T04:52:03;99110.56;;;22.19;95.89
10658;BME280;5377;43.276;26.930;2023-06-24T04:54:30;99111.34;;;22.30;97.90
10658;BME280;5377;43.276;26.930;2023-06-24T04:56:58;99106.94;;;22.39;100.00
10658;BME280;5377;43.276;26.930;2023-06-24T04:59:25;99105.84;;;22.40;98.34
10658;BME280;5377;43.276;26.930;2023-06-24T05:01:51;99105.81;;;22.45;96.34
10658;BME280;5377;43.276;26.930;2023-06-24T05:04:18;99106.56;;;22.61;96.45
10658;BME280;5377;43.276;26.930;2023-06-24T05:06:45;99109.00;;;22.62;97.05
10658;BME280;5377;43.276;26.930;2023-06-24T05:09:12;99099.69;;;22.68;97.50
10658;BME280;5377;43.276;26.930;2023-06-24T05:11:39;99111.91;;;22.76;97.12
10658;BME280;5377;43.276;26.930;2023-06-24T05:14:08;99106.69;;;22.80;95.65
10658;BME280;5377;43.276;26.930;2023-06-24T05:16:34;99112.16;;;22.85;97.79
10658;BME280;5377;43.276;26.930;2023-06-24T05:19:01;99105.78;;;22.99;98.47
10658;BME280;5377;43.276;26.930;2023-06-24T05:21:28;99114.56;;;22.96;95.14
10658;BME280;5377;43.276;26.930;2023-06-24T05:23:55;99110.47;;;22.94;97.84
10658;BME280;5377;43.276;26.930;2023-06-24T05:26:21;99107.22;;;22.92;96.27
10658;BME280;5377;43.276;26.930;2023-06-24T05:28:48;99104.78;;;22.85;92.30
10658;BME280;5377;43.276;26.930;2023-06-24T05:31:16;99100.19;;;22.76;93.99
10658;BME280;5377;43.276;26.930;2023-06-24T05:33:43;99103.47;;;22.72;91.31
10658;BME280;5377;43.276;26.930;2023-06-24T05:36:10;99106.97;;;22.83;92.04
10658;BME280;5377;43.276;26.930;2023-06-24T05:38:37;99102.50;;;23.02;91.24
10658;BME280;5377;43.276;26.930;2023-06-24T05:41:04;99094.88;;;22.99;85.09
10658;BME280;5377;43.276;26.930;2023-06-24T05:43:30;99095.34;;;23.07;85.18
10658;BME280;5377;43.276;26.930;2023-06-24T05:45:57;99083.84;;;23.10;82.68
10658;BME280;5377;43.276;26.930;2023-06-24T05:48:25;99089.88;;;23.07;83.96
10658;BME280;5377;43.276;26.930;2023-06-24T05:50:52;99086.56;;;23.10;84.87
10658;BME280;5377;43.276;26.930;2023-06-24T05:53:19;99088.06;;;23.31;83.02
10658;BME280;5377;43.276;26.930;2023-06-24T05:55:46;99083.88;;;23.39;82.61
10658;BME280;5377;43.276;26.930;2023-06-24T05:58:13;99088.81;;;23.37;82.60
10658;BME280;5377;43.276;26.930;2023-06-24T06:00:40;99090.00;;;23.54;82.19
10658;BME280;5377;43.276;26.930;2023-06-24T06:03:07;99088.25;;;23.69;81.80
10658;BME280;5377;43.276;26.930;2023-06-24T06:05:36;99086.91;;;23.66;80.92
10658;BME280;5377;43.276;26.930;2023-06-24T06:08:03;99086.97;;;23.85;78.21
10658;BME280;5377;43.276;26.930;2023-06-24T06:10:30;99080.81;;;23.98;78.15
10658;BME280;5377;43.276;26.930;2023-06-24T06:12:57;99080.47;;;23.81;75.80
10658;BME280;5377;43.276;26.930;2023-06-24T06:15:23;99073.47;;;23.93;74.83
10658;BME280;5377;43.276;26.930;2023-06-24T06:17:51;99084.38;;;23.99;77.20
10658;BME280;5377;43.276;26.930;2023-06-24T06:20:18;99084.53;;;24.07;75.54
10658;BME280;5377;43.276;26.930;2023-06-24T06:22:46;99087.59;;;24.24;72.93
10658;BME280;5377;43.276;26.930;2023-06-24T06:25:13;99076.25;;;24.36;71.70
10658;BME280;5377;43.276;26.930;2023-06-24T06:27:40;99076.50;;;24.40;69.52
10658;BME280;5377;43.276;26.930;2023-06-24T06:30:07;99080.56;;;24.42;68.94
10658;BME280;5377;43.276;26.930;2023-06-24T06:32:34;99068.19;;;24.45;68.93
10658;BME280;5377;43.276;26.930;2023-06-24T06:35:01;99064.78;;;24.53;63.49
10658;BME280;5377;43.276;26.930;2023-06-24T06:37:28;99065.59;;;24.53;65.37
10658;BME280;5377;43.276;26.930;2023-06-24T06:39:56;99073.59;;;24.50;64.40
10658;BME280;5377;43.276;26.930;2023-06-24T06:42:23;99070.34;;;24.48;63.47
10658;BME280;5377;43.276;26.930;2023-06-24T06:44:50;99067.69;;;24.62;64.67
10658;BME280;5377;43.276;26.930;2023-06-24T06:47:17;99059.75;;;24.79;64.66
10658;BME280;5377;43.276;26.930;2023-06-24T06:49:43;99061.72;;;24.92;57.95
10658;BME280;5377;43.276;26.930;2023-06-24T06:52:10;99073.41;;;24.98;57.14
10658;BME280;5377;43.276;26.930;2023-06-24T06:54:37;99067.81;;;24.89;58.45
10658;BME280;5377;43.276;26.930;2023-06-24T06:57:06;99066.28;;;25.02;60.67
10658;BME280;5377;43.276;26.930;2023-06-24T06:59:32;99064.69;;;25.14;60.64
10658;BME280;5377;43.276;26.930;2023-06-24T07:01:59;99059.75;;;25.30;61.48
10658;BME280;5377;43.276;26.930;2023-06-24T07:04:26;99064.47;;;25.43;58.29
10658;BME280;5377;43.276;26.930;2023-06-24T07:06:53;99067.03;;;25.54;59.35
10658;BME280;5377;43.276;26.930;2023-06-24T07:09:20;99065.06;;;25.73;57.90
10658;BME280;5377;43.276;26.930;2023-06-24T07:11:46;99065.03;;;26.00;56.94
10658;BME280;5377;43.276;26.930;2023-06-24T07:14:14;99063.31;;;26.18;56.39
10658;BME280;5377;43.276;26.930;2023-06-24T07:16:41;99060.13;;;26.25;57.67
10658;BME280;5377;43.276;26.930;2023-06-24T07:19:08;99063.00;;;26.33;59.27
10658;BME280;5377;43.276;26.930;2023-06-24T07:21:35;99074.59;;;26.44;59.23
10658;BME280;5377;43.276;26.930;2023-06-24T07:24:02;99069.44;;;26.65;59.15
10658;BME280;5377;43.276;26.930;2023-06-24T07:26:29;99073.56;;;26.54;58.21
10658;BME280;5377;43.276;26.930;2023-06-24T07:28:56;99071.16;;;26.75;57.62
10658;BME280;5377;43.276;26.930;2023-06-24T07:31:26;99070.41;;;26.83;57.06
10658;BME280;5377;43.276;26.930;2023-06-24T07:33:52;99054.84;;;26.78;55.47
10658;BME280;5377;43.276;26.930;2023-06-24T07:36:19;99071.97;;;26.97;55.62
10658;BME280;5377;43.276;26.930;2023-06-24T07:38:46;99060.78;;;27.08;53.70
10658;BME280;5377;43.276;26.930;2023-06-24T07:41:13;99070.56;;;27.22;53.99
10658;BME280;5377;43.276;26.930;2023-06-24T07:43:40;99059.75;;;27.26;55.34
10658;BME280;5377;43.276;26.930;2023-06-24T07:46:07;99068.81;;;27.26;56.48
10658;BME280;5377;43.276;26.930;2023-06-24T07:48:35;99069.16;;;27.33;56.11
10658;BME280;5377;43.276;26.930;2023-06-24T07:51:02;99063.28;;;27.49;54.39
10658;BME280;5377;43.276;26.930;2023-06-24T07:53:29;99065.00;;;27.67;55.32
10658;BME280;5377;43.276;26.930;2023-06-24T07:55:56;99041.53;;;27.70;52.80
10658;BME280;5377;43.276;26.930;2023-06-24T07:58:22;99052.66;;;27.95;51.71
10658;BME280;5377;43.276;26.930;2023-06-24T08:00:49;99059.63;;;28.02;53.29
10658;BME280;5377;43.276;26.930;2023-06-24T08:03:16;99048.09;;;27.82;54.79
10658;BME280;5377;43.276;26.930;2023-06-24T08:05:44;99023.34;;;27.60;54.61
10658;BME280;5377;43.276;26.930;2023-06-24T08:08:11;99060.94;;;28.04;53.89
10658;BME280;5377;43.276;26.930;2023-06-24T08:10:38;99037.56;;;27.84;55.82
10658;BME280;5377;43.276;26.930;2023-06-24T08:13:05;99052.47;;;28.40;55.67
10658;BME280;5377;43.276;26.930;2023-06-24T08:15:32;99063.50;;;28.57;55.25
10658;BME280;5377;43.276;26.930;2023-06-24T08:17:59;99063.69;;;28.61;53.11
10658;BME280;5377;43.276;26.930;2023-06-24T08:20:25;99061.84;;;28.39;54.29
10658;BME280;5377;43.276;26.930;2023-06-24T08:22:54;99065.78;;;28.55;50.81
10658;BME280;5377;43.276;26.930;2023-06-24T08:25:20;99063.03;;;28.64;51.48
10658;BME280;5377;43.276;26.930;2023-06-24T08:27:47;99069.84;;;28.67;54.57
10658;BME280;5377;43.276;26.930;2023-06-24T08:30:14;99055.25;;;28.75;55.18
10658;BME280;5377;43.276;26.930;2023-06-24T08:32:41;99051.53;;;28.45;54.68
10658;BME280;5377;43.276;26.930;2023-06-24T08:35:08;99054.44;;;28.66;55.12
10658;BME280;5377;43.276;26.930;2023-06-24T08:37:36;99047.13;;;28.70;55.07
10658;BME280;5377;43.276;26.930;2023-06-24T08:40:06;99054.38;;;29.35;55.08
10658;BME280;5377;43.276;26.930;2023-06-24T08:42:33;99046.31;;;29.85;52.62
10658;BME280;5377;43.276;26.930;2023-06-24T08:44:59;99040.78;;;30.86;50.73
10658;BME280;5377;43.276;26.930;2023-06-24T08:47:28;99032.78;;;31.26;44.90
10658;BME280;5377;43.276;26.930;2023-06-24T08:50:02;99040.88;;;31.55;44.79
10658;BME280;5377;43.276;26.930;2023-06-24T08:52:32;99040.44;;;31.53;46.48
10658;BME280;5377;43.276;26.930;2023-06-24T08:55:02;99042.56;;;32.42;46.02
10658;BME280;5377;43.276;26.930;2023-06-24T08:57:32;99029.53;;;32.70;43.29
10658;BME280;5377;43.276;26.930;2023-06-24T08:59:59;99023.97;;;32.82;41.63
10658;BME280;5377;43.276;26.930;2023-06-24T09:02:26;99028.91;;;32.89;42.10
10658;BME280;5377;43.276;26.930;2023-06-24T09:04:53;99024.72;;;32.95;41.22
10658;BME280;5377;43.276;26.930;2023-06-24T09:07:25;99048.88;;;32.95;41.22
10658;BME280;5377;43.276;26.930;2023-06-24T09:09:53;99042.41;;;33.18;40.08
10658;BME280;5377;43.276;26.930;2023-06-24T09:12:20;99044.19;;;33.11;41.39
10658;BME280;5377;43.276;26.930;2023-06-24T09:14:51;99029.97;;;32.84;40.94
10658;BME280;5377;43.276;26.930;2023-06-24T09:17:19;99030.94;;;33.64;39.28
10658;BME280;5377;43.276;26.930;2023-06-24T09:19:47;99041.78;;;33.09;42.02
10658;BME280;5377;43.276;26.930;2023-06-24T09:22:14;99027.00;;;33.33;40.53
10658;BME280;5377;43.276;26.930;2023-06-24T09:24:43;99028.75;;;32.70;42.70
10658;BME280;5377;43.276;26.930;2023-06-24T09:27:12;99020.84;;;33.28;41.84
10658;BME280;5377;43.276;26.930;2023-06-24T09:29:41;99030.59;;;33.49;41.51
10658;BME280;5377;43.276;26.930;2023-06-24T09:32:10;99025.38;;;33.32;41.42
10658;BME280;5377;43.276;26.930;2023-06-24T09:34:37;99019.84;;;33.95;40.29
10658;BME280;5377;43.276;26.930;2023-06-24T09:37:05;99021.25;;;33.58;40.00
10658;BME280;5377;43.276;26.930;2023-06-24T09:39:36;99026.91;;;33.77;40.73
10658;BME280;5377;43.276;26.930;2023-06-24T09:42:04;99027.09;;;33.53;40.67
10658;BME280;5377;43.276;26.930;2023-06-24T09:44:32;99031.41;;;33.22;42.13
10658;BME280;5377;43.276;26.930;2023-06-24T09:46:59;99034.97;;;33.51;41.45
10658;BME280;5377;43.276;26.930;2023-06-24T09:49:28;99025.66;;;32.99;42.79
10658;BME280;5377;43.276;26.930;2023-06-24T09:51:56;99027.00;;;33.33;40.26
10658;BME280;5377;43.276;26.930;2023-06-24T09:54:25;99017.00;;;33.16;40.52
10658;BME280;5377;43.276;26.930;2023-06-24T09:56:53;99024.88;;;33.14;40.58
10658;BME280;5377;43.276;26.930;2023-06-24T09:59:21;99034.84;;;32.35;43.10
10658;BME280;5377;43.276;26.930;2023-06-24T10:01:52;99023.47;;;32.52;43.41
10658;BME280;5377;43.276;26.930;2023-06-24T10:04:20;99012.63;;;32.87;39.93
10658;BME280;5377;43.276;26.930;2023-06-24T10:06:49;99020.81;;;32.96;40.07
10658;BME280;5377;43.276;26.930;2023-06-24T10:09:16;99016.59;;;32.74;41.50
10658;BME280;5377;43.276;26.930;2023-06-24T10:11:45;99008.88;;;32.96;39.85
10658;BME280;5377;43.276;26.930;2023-06-24T10:14:12;99011.31;;;32.97;39.80
10658;BME280;5377;43.276;26.930;2023-06-24T10:16:40;99007.22;;;33.23;39.42
10658;BME280;5377;43.276;26.930;2023-06-24T10:19:07;99004.06;;;33.36;39.32
10658;BME280;5377;43.276;26.930;2023-06-24T10:21:44;99001.66;;;33.07;39.10
10658;BME280;5377;43.276;26.930;2023-06-24T10:24:13;99000.09;;;32.94;39.47
10658;BME280;5377;43.276;26.930;2023-06-24T10:26:54;98998.72;;;33.00;37.87
10658;BME280;5377;43.276;26.930;2023-06-24T10:29:30;98997.59;;;32.88;37.44
10658;BME280;5377;43.276;26.930;2023-06-24T10:32:01;98987.50;;;33.40;38.01
10658;BME280;5377;43.276;26.930;2023-06-24T10:34:32;98985.28;;;33.02;37.55
10658;BME280;5377;43.276;26.930;2023-06-24T10:37:01;98994.66;;;32.69;36.17
10658;BME280;5377;43.276;26.930;2023-06-24T10:39:46;98985.53;;;32.56;37.13
10658;BME280;5377;43.276;26.930;2023-06-24T10:42:33;98987.44;;;33.08;36.43
10658;BME280;5377;43.276;26.930;2023-06-24T10:45:18;98971.47;;;33.33;36.74
10658;BME280;5377;43.276;26.930;2023-06-24T10:47:47;98949.25;;;32.90;33.92
10658;BME280;5377;43.276;26.930;2023-06-24T10:50:16;98946.81;;;33.47;32.86
10658;BME280;5377;43.276;26.930;2023-06-24T10:52:44;98950.22;;;33.57;33.71
10658;BME280;5377;43.276;26.930;2023-06-24T10:55:13;98951.75;;;33.38;33.40
10658;BME280;5377;43.276;26.930;2023-06-24T10:57:40;98953.63;;;33.66;32.48
10658;BME280;5377;43.276;26.930;2023-06-24T11:00:08;98904.81;;;33.49;31.58
10658;BME280;5377;43.276;26.930;2023-06-24T11:02:35;98937.25;;;33.45;32.50
10658;BME280;5377;43.276;26.930;2023-06-24T11:05:04;98934.34;;;33.26;33.41
10658;BME280;5377;43.276;26.930;2023-06-24T11:07:32;98933.38;;;32.74;34.18
10658;BME280;5377;43.276;26.930;2023-06-24T11:10:02;98944.56;;;32.78;35.32
10658;BME280;5377;43.276;26.930;2023-06-24T11:12:33;98929.22;;;33.12;34.53
10658;BME280;5377;43.276;26.930;2023-06-24T11:15:02;98927.81;;;33.18;34.38
10658;BME280;5377;43.276;26.930;2023-06-24T11:17:30;98923.88;;;33.51;34.55
10658;BME280;5377;43.276;26.930;2023-06-24T11:19:58;98928.94;;;33.80;33.72
10658;BME280;5377;43.276;26.930;2023-06-24T11:22:25;98927.34;;;33.63;34.06
10658;BME280;5377;43.276;26.930;2023-06-24T11:24:53;98918.56;;;33.77;33.47
10658;BME280;5377;43.276;26.930;2023-06-24T11:27:24;98906.06;;;34.02;33.75
10658;BME280;5377;43.276;26.930;2023-06-24T11:29:53;98924.22;;;34.16;34.59
10658;BME280;5377;43.276;26.930;2023-06-24T11:32:20;98910.41;;;34.38;33.66
10658;BME280;5377;43.276;26.930;2023-06-24T11:34:48;98912.72;;;34.17;33.46
10658;BME280;5377;43.276;26.930;2023-06-24T11:37:16;98906.84;;;34.38;33.18
10658;BME280;5377;43.276;26.930;2023-06-24T11:39:44;98926.53;;;34.33;33.22
10658;BME280;5377;43.276;26.930;2023-06-24T11:42:11;98910.53;;;34.26;33.48
10658;BME280;5377;43.276;26.930;2023-06-24T11:44:41;98908.41;;;34.00;34.51
10658;BME280;5377;43.276;26.930;2023-06-24T11:47:10;98907.22;;;34.36;32.10
10658;BME280;5377;43.276;26.930;2023-06-24T11:49:51;98901.75;;;34.63;32.84
10658;BME280;5377;43.276;26.930;2023-06-24T11:52:18;98899.56;;;34.14;32.28
10658;BME280;5377;43.276;26.930;2023-06-24T11:54:45;98900.09;;;33.85;32.16
10658;BME280;5377;43.276;26.930;2023-06-24T11:57:12;98903.94;;;33.80;32.37
10658;BME280;5377;43.276;26.930;2023-06-24T11:59:39;98890.53;;;34.36;33.06
10658;BME280;5377;43.276;26.930;2023-06-24T12:02:06;98901.97;;;34.74;32.12
10658;BME280;5377;43.276;26.930;2023-06-24T12:04:34;98904.19;;;34.45;32.51
10658;BME280;5377;43.276;26.930;2023-06-24T12:07:02;98904.69;;;34.51;32.92
10658;BME280;5377;43.276;26.930;2023-06-24T12:09:30;98903.16;;;34.72;32.51
10658;BME280;5377;43.276;26.930;2023-06-24T12:11:56;98898.28;;;34.31;32.91
10658;BME280;5377;43.276;26.930;2023-06-24T12:14:23;98903.28;;;34.60;32.73
10658;BME280;5377;43.276;26.930;2023-06-24T12:16:50;98894.19;;;34.83;31.34
10658;BME280;5377;43.276;26.930;2023-06-24T12:19:17;98892.94;;;34.38;31.89
10658;BME280;5377;43.276;26.930;2023-06-24T12:21:47;98879.03;;;34.38;31.19
10658;BME280;5377;43.276;26.930;2023-06-24T12:24:14;98892.16;;;34.60;31.53
10658;BME280;5377;43.276;26.930;2023-06-24T12:26:40;98890.38;;;34.91;31.89
10658;BME280;5377;43.276;26.930;2023-06-24T12:29:07;98885.41;;;34.81;29.91
10658;BME280;5377;43.276;26.930;2023-06-24T12:31:34;98890.50;;;35.44;30.17
10658;BME280;5377;43.276;26.930;2023-06-24T12:34:01;98892.63;;;35.05;29.71
10658;BME280;5377;43.276;26.930;2023-06-24T12:36:27;98886.78;;;35.62;29.51
10658;BME280;5377;43.276;26.930;2023-06-24T12:38:56;98874.31;;;35.53;30.06
10658;BME280;5377;43.276;26.930;2023-06-24T12:41:22;98874.22;;;35.46;29.34
10658;BME280;5377;43.276;26.930;2023-06-24T12:43:49;98879.72;;;34.74;29.95
10658;BME280;5377;43.276;26.930;2023-06-24T12:46:16;98875.59;;;34.87;29.69
10658;BME280;5377;43.276;26.930;2023-06-24T12:48:44;98869.44;;;35.23;29.47
10658;BME280;5377;43.276;26.930;2023-06-24T12:51:10;98864.56;;;35.40;29.07
10658;BME280;5377;43.276;26.930;2023-06-24T12:53:37;98859.06;;;35.73;28.91
10658;BME280;5377;43.276;26.930;2023-06-24T12:56:06;98865.22;;;35.56;28.52
10658;BME280;5377;43.276;26.930;2023-06-24T12:58:34;98856.75;;;35.26;27.92
10658;BME280;5377;43.276;26.930;2023-06-24T13:01:00;98843.31;;;35.31;28.36
10658;BME280;5377;43.276;26.930;2023-06-24T13:03:27;98866.16;;;35.67;27.75
10658;BME280;5377;43.276;26.930;2023-06-24T13:05:54;98849.56;;;36.34;27.53